Hegins, Pennsylvania
Current Conditions -  °F | °C
As of 10:58 PM on Thursday 20 Nov 2014 (Local Time) from KMUI Reporting Station
Clear Clear  
Wind Chill: 21°   Ceiling: Unl
Heat Index: 28°   Visibility: 10mi
Dew Point:   Wind: 7mph
Humidity: 41%   Direction: 290°WNW
Pressure: 30.08"   Gusts: NA
Location:  40.65°N, 76.5°W
Report Text: KMUI 210358Z AUTO 29006KT 10SM CLR M02/M14 A3008 RMK AO2 SLP194 T10211139 $
Loading
Personal Weather Stations






























Interactive Weather Map New forecast layout! Learn more

10-Day Weather Forecast

Advertisements
Track Severe Weather on mobile